sensor_id;sensor_type;location;lat;lon;timestamp;P1;durP1;ratioP1;P2;durP2;ratioP2
67248;SDS011;63247;54.300;18.592;2023-02-28T00:00:23;50.08;;;15.10;;
67248;SDS011;63247;54.300;18.592;2023-02-28T00:02:49;47.72;;;13.38;;
67248;SDS011;63247;54.300;18.592;2023-02-28T00:05:16;40.70;;;11.50;;
67248;SDS011;63247;54.300;18.592;2023-02-28T00:07:43;42.67;;;12.10;;
67248;SDS011;63247;54.300;18.592;2023-02-28T00:10:12;45.43;;;11.87;;
67248;SDS011;63247;54.300;18.592;2023-02-28T00:12:45;43.88;;;12.55;;
67248;SDS011;63247;54.300;18.592;2023-02-28T00:15:11;46.40;;;13.55;;
67248;SDS011;63247;54.300;18.592;2023-02-28T00:17:37;50.27;;;15.73;;
67248;SDS011;63247;54.300;18.592;2023-02-28T00:20:03;56.75;;;16.25;;
67248;SDS011;63247;54.300;18.592;2023-02-28T00:22:33;42.95;;;13.95;;
67248;SDS011;63247;54.300;18.592;2023-02-28T00:24:59;43.33;;;12.17;;
67248;SDS011;63247;54.300;18.592;2023-02-28T00:27:25;42.60;;;11.38;;
67248;SDS011;63247;54.300;18.592;2023-02-28T00:29:50;45.13;;;12.43;;
67248;SDS011;63247;54.300;18.592;2023-02-28T00:32:15;50.97;;;15.13;;
67248;SDS011;63247;54.300;18.592;2023-02-28T00:34:41;65.57;;;18.07;;
67248;SDS011;63247;54.300;18.592;2023-02-28T00:37:07;61.83;;;19.83;;
67248;SDS011;63247;54.300;18.592;2023-02-28T00:39:34;61.85;;;17.25;;
67248;SDS011;63247;54.300;18.592;2023-02-28T00:42:01;54.85;;;15.60;;
67248;SDS011;63247;54.300;18.592;2023-02-28T00:44:28;47.83;;;14.60;;
67248;SDS011;63247;54.300;18.592;2023-02-28T00:46:53;61.63;;;16.53;;
67248;SDS011;63247;54.300;18.592;2023-02-28T00:49:19;55.92;;;16.38;;
67248;SDS011;63247;54.300;18.592;2023-02-28T00:51:45;57.30;;;15.93;;
67248;SDS011;63247;54.300;18.592;2023-02-28T00:54:11;54.90;;;16.13;;
67248;SDS011;63247;54.300;18.592;2023-02-28T00:56:36;50.97;;;14.27;;
67248;SDS011;63247;54.300;18.592;2023-02-28T00:59:01;49.60;;;14.77;;
67248;SDS011;63247;54.300;18.592;2023-02-28T01:01:27;55.80;;;15.40;;
67248;SDS011;63247;54.300;18.592;2023-02-28T01:03:52;54.17;;;14.77;;
67248;SDS011;63247;54.300;18.592;2023-02-28T01:06:17;47.47;;;12.83;;
67248;SDS011;63247;54.300;18.592;2023-02-28T01:08:43;42.10;;;12.50;;
67248;SDS011;63247;54.300;18.592;2023-02-28T01:11:09;39.42;;;11.57;;
67248;SDS011;63247;54.300;18.592;2023-02-28T01:13:35;39.10;;;10.35;;
67248;SDS011;63247;54.300;18.592;2023-02-28T01:16:01;38.15;;;11.32;;
67248;SDS011;63247;54.300;18.592;2023-02-28T01:18:27;34.47;;;9.83;;
67248;SDS011;63247;54.300;18.592;2023-02-28T01:20:53;38.47;;;10.02;;
67248;SDS011;63247;54.300;18.592;2023-02-28T01:23:19;34.37;;;10.47;;
67248;SDS011;63247;54.300;18.592;2023-02-28T01:25:45;38.17;;;10.75;;
67248;SDS011;63247;54.300;18.592;2023-02-28T01:28:10;42.43;;;12.10;;
67248;SDS011;63247;54.300;18.592;2023-02-28T01:30:36;51.03;;;13.93;;
67248;SDS011;63247;54.300;18.592;2023-02-28T01:33:01;49.63;;;14.47;;
67248;SDS011;63247;54.300;18.592;2023-02-28T01:35:26;41.33;;;12.43;;
67248;SDS011;63247;54.300;18.592;2023-02-28T01:37:52;43.07;;;11.73;;
67248;SDS011;63247;54.300;18.592;2023-02-28T01:40:17;34.67;;;9.57;;
67248;SDS011;63247;54.300;18.592;2023-02-28T01:42:43;32.92;;;9.77;;
67248;SDS011;63247;54.300;18.592;2023-02-28T01:48:11;26.43;;;7.63;;
67248;SDS011;63247;54.300;18.592;2023-02-28T01:50:39;21.90;;;6.93;;
67248;SDS011;63247;54.300;18.592;2023-02-28T01:53:07;29.70;;;7.78;;
67248;SDS011;63247;54.300;18.592;2023-02-28T01:55:38;23.58;;;7.03;;
67248;SDS011;63247;54.300;18.592;2023-02-28T01:58:04;28.58;;;7.78;;
67248;SDS011;63247;54.300;18.592;2023-02-28T02:00:32;27.33;;;7.27;;
67248;SDS011;63247;54.300;18.592;2023-02-28T02:03:05;24.35;;;7.43;;
67248;SDS011;63247;54.300;18.592;2023-02-28T02:05:33;25.15;;;7.47;;
67248;SDS011;63247;54.300;18.592;2023-02-28T02:08:02;29.80;;;8.32;;
67248;SDS011;63247;54.300;18.592;2023-02-28T02:10:31;25.03;;;7.37;;
67248;SDS011;63247;54.300;18.592;2023-02-28T02:18:52;18.27;;;5.55;;
67248;SDS011;63247;54.300;18.592;2023-02-28T02:27:56;15.10;;;4.30;;
67248;SDS011;63247;54.300;18.592;2023-02-28T02:41:19;10.70;;;2.78;;
67248;SDS011;63247;54.300;18.592;2023-02-28T02:43:53;12.63;;;3.40;;
67248;SDS011;63247;54.300;18.592;2023-02-28T02:46:30;13.80;;;3.60;;
67248;SDS011;63247;54.300;18.592;2023-02-28T02:49:03;11.68;;;3.63;;
67248;SDS011;63247;54.300;18.592;2023-02-28T02:51:33;16.53;;;3.13;;
67248;SDS011;63247;54.300;18.592;2023-02-28T02:54:02;10.55;;;3.30;;
67248;SDS011;63247;54.300;18.592;2023-02-28T02:56:33;15.82;;;3.95;;
67248;SDS011;63247;54.300;18.592;2023-02-28T02:59:04;13.43;;;4.30;;
67248;SDS011;63247;54.300;18.592;2023-02-28T03:01:32;17.63;;;5.22;;
67248;SDS011;63247;54.300;18.592;2023-02-28T03:04:02;22.87;;;6.57;;
67248;SDS011;63247;54.300;18.592;2023-02-28T03:06:30;26.58;;;6.93;;
67248;SDS011;63247;54.300;18.592;2023-02-28T03:08:56;25.17;;;7.33;;
67248;SDS011;63247;54.300;18.592;2023-02-28T03:11:21;31.10;;;8.55;;
67248;SDS011;63247;54.300;18.592;2023-02-28T03:19:31;28.40;;;7.82;;
67248;SDS011;63247;54.300;18.592;2023-02-28T03:33:03;30.85;;;7.30;;
67248;SDS011;63247;54.300;18.592;2023-02-28T03:35:32;23.60;;;6.77;;
67248;SDS011;63247;54.300;18.592;2023-02-28T03:38:38;19.13;;;5.97;;
67248;SDS011;63247;54.300;18.592;2023-02-28T03:41:14;20.58;;;5.88;;
67248;SDS011;63247;54.300;18.592;2023-02-28T03:43:49;24.65;;;6.43;;
67248;SDS011;63247;54.300;18.592;2023-02-28T03:46:19;23.65;;;6.63;;
67248;SDS011;63247;54.300;18.592;2023-02-28T03:48:54;22.57;;;6.60;;
67248;SDS011;63247;54.300;18.592;2023-02-28T03:51:26;21.65;;;6.28;;
67248;SDS011;63247;54.300;18.592;2023-02-28T03:53:56;20.48;;;5.95;;
67248;SDS011;63247;54.300;18.592;2023-02-28T03:56:31;23.20;;;5.68;;
67248;SDS011;63247;54.300;18.592;2023-02-28T04:01:47;23.50;;;6.20;;
67248;SDS011;63247;54.300;18.592;2023-02-28T04:04:14;16.92;;;6.43;;
67248;SDS011;63247;54.300;18.592;2023-02-28T04:06:41;20.73;;;6.18;;
67248;SDS011;63247;54.300;18.592;2023-02-28T04:09:07;25.23;;;7.03;;
67248;SDS011;63247;54.300;18.592;2023-02-28T04:14:10;21.63;;;6.20;;
67248;SDS011;63247;54.300;18.592;2023-02-28T04:16:38;23.48;;;6.78;;
67248;SDS011;63247;54.300;18.592;2023-02-28T04:19:06;23.08;;;6.45;;
67248;SDS011;63247;54.300;18.592;2023-02-28T04:21:33;20.90;;;6.00;;
67248;SDS011;63247;54.300;18.592;2023-02-28T04:24:01;21.55;;;5.78;;
67248;SDS011;63247;54.300;18.592;2023-02-28T04:26:33;20.97;;;5.27;;
67248;SDS011;63247;54.300;18.592;2023-02-28T04:29:00;16.90;;;4.82;;
67248;SDS011;63247;54.300;18.592;2023-02-28T04:31:27;22.10;;;6.00;;
67248;SDS011;63247;54.300;18.592;2023-02-28T04:33:52;19.23;;;5.23;;
67248;SDS011;63247;54.300;18.592;2023-02-28T04:36:18;17.90;;;5.83;;
67248;SDS011;63247;54.300;18.592;2023-02-28T04:38:43;22.08;;;6.25;;
67248;SDS011;63247;54.300;18.592;2023-02-28T04:41:10;25.05;;;6.95;;
67248;SDS011;63247;54.300;18.592;2023-02-28T04:43:36;23.23;;;6.20;;
67248;SDS011;63247;54.300;18.592;2023-02-28T04:46:02;23.40;;;6.80;;
67248;SDS011;63247;54.300;18.592;2023-02-28T04:48:30;28.05;;;7.43;;
67248;SDS011;63247;54.300;18.592;2023-02-28T04:51:01;31.83;;;8.40;;
67248;SDS011;63247;54.300;18.592;2023-02-28T04:53:31;30.85;;;7.85;;
67248;SDS011;63247;54.300;18.592;2023-02-28T04:55:57;28.43;;;6.57;;
67248;SDS011;63247;54.300;18.592;2023-02-28T04:58:23;16.13;;;5.13;;
67248;SDS011;63247;54.300;18.592;2023-02-28T05:00:50;16.85;;;4.75;;
67248;SDS011;63247;54.300;18.592;2023-02-28T05:03:16;16.02;;;4.60;;
67248;SDS011;63247;54.300;18.592;2023-02-28T05:05:42;17.37;;;4.40;;
67248;SDS011;63247;54.300;18.592;2023-02-28T05:08:07;21.33;;;5.60;;
67248;SDS011;63247;54.300;18.592;2023-02-28T05:10:32;20.53;;;5.67;;
67248;SDS011;63247;54.300;18.592;2023-02-28T05:12:58;22.38;;;5.63;;
67248;SDS011;63247;54.300;18.592;2023-02-28T05:15:24;18.97;;;4.90;;
67248;SDS011;63247;54.300;18.592;2023-02-28T05:17:49;16.03;;;4.67;;
67248;SDS011;63247;54.300;18.592;2023-02-28T05:20:15;19.40;;;4.93;;
67248;SDS011;63247;54.300;18.592;2023-02-28T05:22:40;16.97;;;4.63;;
67248;SDS011;63247;54.300;18.592;2023-02-28T05:25:06;18.33;;;4.72;;
67248;SDS011;63247;54.300;18.592;2023-02-28T05:27:33;13.38;;;4.28;;
67248;SDS011;63247;54.300;18.592;2023-02-28T05:29:59;21.57;;;5.70;;
67248;SDS011;63247;54.300;18.592;2023-02-28T05:32:24;29.27;;;6.43;;
67248;SDS011;63247;54.300;18.592;2023-02-28T05:34:50;25.97;;;6.47;;
67248;SDS011;63247;54.300;18.592;2023-02-28T05:37:15;17.77;;;5.23;;
67248;SDS011;63247;54.300;18.592;2023-02-28T05:39:41;16.15;;;4.53;;
67248;SDS011;63247;54.300;18.592;2023-02-28T05:42:07;15.03;;;3.80;;
67248;SDS011;63247;54.300;18.592;2023-02-28T05:44:34;14.32;;;4.20;;
67248;SDS011;63247;54.300;18.592;2023-02-28T05:47:00;14.50;;;4.15;;
67248;SDS011;63247;54.300;18.592;2023-02-28T05:49:25;17.07;;;4.00;;
67248;SDS011;63247;54.300;18.592;2023-02-28T05:51:51;14.60;;;3.90;;
67248;SDS011;63247;54.300;18.592;2023-02-28T05:54:16;15.03;;;3.83;;
67248;SDS011;63247;54.300;18.592;2023-02-28T05:56:41;11.52;;;3.70;;
67248;SDS011;63247;54.300;18.592;2023-02-28T05:59:10;17.92;;;4.25;;
67248;SDS011;63247;54.300;18.592;2023-02-28T06:01:37;14.07;;;4.30;;
67248;SDS011;63247;54.300;18.592;2023-02-28T06:04:06;16.50;;;4.65;;
67248;SDS011;63247;54.300;18.592;2023-02-28T06:06:33;14.73;;;4.22;;
67248;SDS011;63247;54.300;18.592;2023-02-28T06:09:02;14.67;;;5.07;;
67248;SDS011;63247;54.300;18.592;2023-02-28T06:11:30;16.52;;;4.80;;
67248;SDS011;63247;54.300;18.592;2023-02-28T06:13:56;16.05;;;4.95;;
67248;SDS011;63247;54.300;18.592;2023-02-28T06:16:24;19.08;;;5.55;;
67248;SDS011;63247;54.300;18.592;2023-02-28T06:18:50;18.55;;;6.20;;
67248;SDS011;63247;54.300;18.592;2023-02-28T06:21:17;20.52;;;5.75;;
67248;SDS011;63247;54.300;18.592;2023-02-28T06:23:42;21.43;;;6.87;;
67248;SDS011;63247;54.300;18.592;2023-02-28T06:26:09;27.10;;;7.80;;
67248;SDS011;63247;54.300;18.592;2023-02-28T06:28:35;22.75;;;6.30;;
67248;SDS011;63247;54.300;18.592;2023-02-28T06:31:11;15.63;;;5.20;;
67248;SDS011;63247;54.300;18.592;2023-02-28T06:33:38;15.82;;;5.10;;
67248;SDS011;63247;54.300;18.592;2023-02-28T06:36:04;13.30;;;4.90;;
67248;SDS011;63247;54.300;18.592;2023-02-28T06:38:31;14.43;;;4.40;;
67248;SDS011;63247;54.300;18.592;2023-02-28T06:40:57;15.23;;;5.15;;
67248;SDS011;63247;54.300;18.592;2023-02-28T06:43:24;15.98;;;5.07;;
67248;SDS011;63247;54.300;18.592;2023-02-28T06:45:50;13.90;;;5.40;;
67248;SDS011;63247;54.300;18.592;2023-02-28T06:48:19;15.37;;;6.10;;
67248;SDS011;63247;54.300;18.592;2023-02-28T06:50:44;18.15;;;5.93;;
67248;SDS011;63247;54.300;18.592;2023-02-28T06:53:09;17.63;;;5.70;;
67248;SDS011;63247;54.300;18.592;2023-02-28T06:55:37;16.93;;;6.30;;
67248;SDS011;63247;54.300;18.592;2023-02-28T06:58:03;16.08;;;5.50;;
67248;SDS011;63247;54.300;18.592;2023-02-28T07:00:43;14.25;;;5.38;;
67248;SDS011;63247;54.300;18.592;2023-02-28T07:03:09;15.00;;;4.77;;
67248;SDS011;63247;54.300;18.592;2023-02-28T07:05:36;14.52;;;4.93;;
67248;SDS011;63247;54.300;18.592;2023-02-28T07:08:02;15.52;;;5.50;;
67248;SDS011;63247;54.300;18.592;2023-02-28T07:10:29;19.00;;;6.32;;
67248;SDS011;63247;54.300;18.592;2023-02-28T07:12:55;17.05;;;5.90;;
67248;SDS011;63247;54.300;18.592;2023-02-28T07:15:20;17.83;;;6.07;;
67248;SDS011;63247;54.300;18.592;2023-02-28T07:17:46;17.07;;;6.10;;
67248;SDS011;63247;54.300;18.592;2023-02-28T07:20:11;15.00;;;6.00;;
67248;SDS011;63247;54.300;18.592;2023-02-28T07:22:37;15.50;;;6.25;;
67248;SDS011;63247;54.300;18.592;2023-02-28T07:25:03;14.88;;;6.22;;
67248;SDS011;63247;54.300;18.592;2023-02-28T07:27:29;16.52;;;5.95;;
67248;SDS011;63247;54.300;18.592;2023-02-28T07:29:55;16.70;;;6.30;;
67248;SDS011;63247;54.300;18.592;2023-02-28T07:32:20;14.53;;;5.80;;
67248;SDS011;63247;54.300;18.592;2023-02-28T07:34:45;15.63;;;5.75;;
67248;SDS011;63247;54.300;18.592;2023-02-28T07:37:11;16.85;;;6.30;;
67248;SDS011;63247;54.300;18.592;2023-02-28T07:39:36;14.07;;;5.77;;
67248;SDS011;63247;54.300;18.592;2023-02-28T07:42:05;14.43;;;5.77;;
67248;SDS011;63247;54.300;18.592;2023-02-28T07:44:31;13.57;;;5.80;;
67248;SDS011;63247;54.300;18.592;2023-02-28T07:46:57;16.00;;;6.57;;
67248;SDS011;63247;54.300;18.592;2023-02-28T07:49:23;18.65;;;6.35;;
67248;SDS011;63247;54.300;18.592;2023-02-28T07:51:48;17.00;;;6.10;;
67248;SDS011;63247;54.300;18.592;2023-02-28T07:54:14;16.90;;;6.87;;
67248;SDS011;63247;54.300;18.592;2023-02-28T07:56:39;15.75;;;5.95;;
67248;SDS011;63247;54.300;18.592;2023-02-28T07:59:04;14.15;;;6.50;;
67248;SDS011;63247;54.300;18.592;2023-02-28T08:01:30;14.73;;;5.77;;
67248;SDS011;63247;54.300;18.592;2023-02-28T08:03:55;16.27;;;5.80;;
67248;SDS011;63247;54.300;18.592;2023-02-28T08:06:23;13.60;;;5.63;;
67248;SDS011;63247;54.300;18.592;2023-02-28T08:08:50;17.13;;;6.37;;
67248;SDS011;63247;54.300;18.592;2023-02-28T08:11:16;19.17;;;6.45;;
67248;SDS011;63247;54.300;18.592;2023-02-28T08:13:43;15.53;;;6.37;;
67248;SDS011;63247;54.300;18.592;2023-02-28T08:16:09;15.50;;;6.63;;
67248;SDS011;63247;54.300;18.592;2023-02-28T08:18:35;17.52;;;6.85;;
67248;SDS011;63247;54.300;18.592;2023-02-28T08:21:08;16.48;;;6.82;;
67248;SDS011;63247;54.300;18.592;2023-02-28T08:23:34;19.13;;;7.10;;
67248;SDS011;63247;54.300;18.592;2023-02-28T08:26:00;19.40;;;6.80;;
67248;SDS011;63247;54.300;18.592;2023-02-28T08:28:25;13.37;;;5.47;;
67248;SDS011;63247;54.300;18.592;2023-02-28T08:30:50;19.60;;;6.20;;
67248;SDS011;63247;54.300;18.592;2023-02-28T08:33:16;18.80;;;6.37;;
67248;SDS011;63247;54.300;18.592;2023-02-28T08:35:44;13.70;;;5.70;;
67248;SDS011;63247;54.300;18.592;2023-02-28T08:38:09;12.97;;;5.00;;
67248;SDS011;63247;54.300;18.592;2023-02-28T08:40:34;12.63;;;5.00;;
67248;SDS011;63247;54.300;18.592;2023-02-28T08:43:00;13.60;;;4.50;;
67248;SDS011;63247;54.300;18.592;2023-02-28T08:45:25;16.20;;;5.17;;
67248;SDS011;63247;54.300;18.592;2023-02-28T08:47:51;10.70;;;4.07;;
67248;SDS011;63247;54.300;18.592;2023-02-28T08:50:17;10.90;;;3.83;;
67248;SDS011;63247;54.300;18.592;2023-02-28T08:52:43;12.60;;;4.17;;
67248;SDS011;63247;54.300;18.592;2023-02-28T08:55:09;12.20;;;4.07;;
67248;SDS011;63247;54.300;18.592;2023-02-28T08:57:34;14.55;;;4.25;;
67248;SDS011;63247;54.300;18.592;2023-02-28T09:00:00;8.20;;;3.10;;
67248;SDS011;63247;54.300;18.592;2023-02-28T09:02:29;12.18;;;3.30;;
67248;SDS011;63247;54.300;18.592;2023-02-28T09:04:55;8.00;;;3.10;;
67248;SDS011;63247;54.300;18.592;2023-02-28T09:07:20;10.20;;;3.10;;
67248;SDS011;63247;54.300;18.592;2023-02-28T09:09:45;10.70;;;3.47;;
67248;SDS011;63247;54.300;18.592;2023-02-28T09:12:24;6.88;;;2.45;;
67248;SDS011;63247;54.300;18.592;2023-02-28T09:14:50;12.90;;;4.00;;
67248;SDS011;63247;54.300;18.592;2023-02-28T09:17:16;12.65;;;3.88;;
67248;SDS011;63247;54.300;18.592;2023-02-28T09:19:42;8.15;;;3.15;;
67248;SDS011;63247;54.300;18.592;2023-02-28T09:22:08;9.50;;;2.90;;
67248;SDS011;63247;54.300;18.592;2023-02-28T09:24:35;4.65;;;1.80;;
67248;SDS011;63247;54.300;18.592;2023-02-28T09:27:01;6.95;;;2.08;;
67248;SDS011;63247;54.300;18.592;2023-02-28T09:29:26;5.93;;;2.40;;
67248;SDS011;63247;54.300;18.592;2023-02-28T09:31:52;6.50;;;2.20;;
67248;SDS011;63247;54.300;18.592;2023-02-28T09:34:17;5.30;;;2.20;;
67248;SDS011;63247;54.300;18.592;2023-02-28T09:36:42;6.25;;;2.50;;
67248;SDS011;63247;54.300;18.592;2023-02-28T09:39:08;8.73;;;2.83;;
67248;SDS011;63247;54.300;18.592;2023-02-28T09:41:38;8.88;;;3.47;;
67248;SDS011;63247;54.300;18.592;2023-02-28T09:44:13;9.82;;;3.90;;
67248;SDS011;63247;54.300;18.592;2023-02-28T09:46:56;8.85;;;3.83;;
67248;SDS011;63247;54.300;18.592;2023-02-28T09:49:25;9.38;;;4.47;;
67248;SDS011;63247;54.300;18.592;2023-02-28T09:54:34;8.82;;;4.00;;
67248;SDS011;63247;54.300;18.592;2023-02-28T10:05:22;15.48;;;6.35;;
67248;SDS011;63247;54.300;18.592;2023-02-28T10:08:00;16.55;;;6.07;;
67248;SDS011;63247;54.300;18.592;2023-02-28T10:10:36;15.53;;;6.30;;
67248;SDS011;63247;54.300;18.592;2023-02-28T10:13:21;15.55;;;6.90;;
67248;SDS011;63247;54.300;18.592;2023-02-28T10:15:51;24.58;;;9.07;;
67248;SDS011;63247;54.300;18.592;2023-02-28T10:18:21;17.17;;;7.47;;
67248;SDS011;63247;54.300;18.592;2023-02-28T10:20:50;18.83;;;8.00;;
67248;SDS011;63247;54.300;18.592;2023-02-28T10:23:22;15.83;;;6.70;;
67248;SDS011;63247;54.300;18.592;2023-02-28T10:26:34;14.88;;;6.38;;
67248;SDS011;63247;54.300;18.592;2023-02-28T10:28:41;15.23;;;6.30;;
67248;SDS011;63247;54.300;18.592;2023-02-28T10:31:08;13.20;;;5.60;;
67248;SDS011;63247;54.300;18.592;2023-02-28T10:33:45;12.43;;;5.87;;
67248;SDS011;63247;54.300;18.592;2023-02-28T10:36:13;14.95;;;6.07;;
67248;SDS011;63247;54.300;18.592;2023-02-28T10:38:41;12.07;;;5.43;;
67248;SDS011;63247;54.300;18.592;2023-02-28T10:43:33;11.30;;;4.30;;
67248;SDS011;63247;54.300;18.592;2023-02-28T10:48:35;11.85;;;4.50;;
67248;SDS011;63247;54.300;18.592;2023-02-28T10:51:02;11.50;;;4.60;;
67248;SDS011;63247;54.300;18.592;2023-02-28T10:56:20;10.88;;;4.35;;
67248;SDS011;63247;54.300;18.592;2023-02-28T11:01:41;9.70;;;3.58;;
67248;SDS011;63247;54.300;18.592;2023-02-28T11:06:48;12.98;;;4.57;;
67248;SDS011;63247;54.300;18.592;2023-02-28T11:09:25;10.68;;;3.65;;
67248;SDS011;63247;54.300;18.592;2023-02-28T11:11:56;10.73;;;3.47;;
67248;SDS011;63247;54.300;18.592;2023-02-28T11:14:24;11.10;;;3.73;;
67248;SDS011;63247;54.300;18.592;2023-02-28T11:16:52;11.77;;;4.07;;
67248;SDS011;63247;54.300;18.592;2023-02-28T11:19:20;10.70;;;3.80;;
67248;SDS011;63247;54.300;18.592;2023-02-28T11:21:54;13.80;;;4.00;;
67248;SDS011;63247;54.300;18.592;2023-02-28T11:26:48;11.65;;;4.50;;
67248;SDS011;63247;54.300;18.592;2023-02-28T11:29:18;12.13;;;4.65;;
67248;SDS011;63247;54.300;18.592;2023-02-28T11:32:32;14.13;;;4.40;;
67248;SDS011;63247;54.300;18.592;2023-02-28T11:34:43;14.47;;;5.13;;
67248;SDS011;63247;54.300;18.592;2023-02-28T11:37:13;14.80;;;5.00;;
67248;SDS011;63247;54.300;18.592;2023-02-28T11:39:41;14.98;;;5.53;;
67248;SDS011;63247;54.300;18.592;2023-02-28T11:42:23;16.93;;;6.00;;
67248;SDS011;63247;54.300;18.592;2023-02-28T11:55:07;14.23;;;5.07;;
67248;SDS011;63247;54.300;18.592;2023-02-28T12:06:01;18.02;;;5.55;;
67248;SDS011;63247;54.300;18.592;2023-02-28T12:18:03;10.10;;;3.17;;
67248;SDS011;63247;54.300;18.592;2023-02-28T12:20:37;12.57;;;3.70;;
67248;SDS011;63247;54.300;18.592;2023-02-28T12:25:52;13.85;;;3.85;;
67248;SDS011;63247;54.300;18.592;2023-02-28T12:28:26;8.90;;;3.03;;
67248;SDS011;63247;54.300;18.592;2023-02-28T12:31:12;9.88;;;3.35;;
67248;SDS011;63247;54.300;18.592;2023-02-28T12:33:45;10.95;;;3.35;;
67248;SDS011;63247;54.300;18.592;2023-02-28T12:36:16;9.25;;;3.05;;
67248;SDS011;63247;54.300;18.592;2023-02-28T12:41:41;8.03;;;2.70;;
67248;SDS011;63247;54.300;18.592;2023-02-28T12:47:03;11.15;;;3.30;;
67248;SDS011;63247;54.300;18.592;2023-02-28T12:51:56;8.00;;;2.75;;
67248;SDS011;63247;54.300;18.592;2023-02-28T13:08:27;10.55;;;3.30;;
67248;SDS011;63247;54.300;18.592;2023-02-28T13:11:00;8.67;;;3.07;;
67248;SDS011;63247;54.300;18.592;2023-02-28T13:13:26;8.30;;;2.97;;
67248;SDS011;63247;54.300;18.592;2023-02-28T13:16:01;8.43;;;2.97;;
67248;SDS011;63247;54.300;18.592;2023-02-28T13:18:35;9.38;;;3.05;;
67248;SDS011;63247;54.300;18.592;2023-02-28T13:21:05;11.13;;;3.17;;
67248;SDS011;63247;54.300;18.592;2023-02-28T13:26:12;10.23;;;3.55;;
67248;SDS011;63247;54.300;18.592;2023-02-28T13:28:57;10.10;;;3.20;;
67248;SDS011;63247;54.300;18.592;2023-02-28T13:31:25;10.68;;;3.15;;
67248;SDS011;63247;54.300;18.592;2023-02-28T13:38:54;10.00;;;3.40;;
67248;SDS011;63247;54.300;18.592;2023-02-28T13:51:48;10.97;;;3.50;;
67248;SDS011;63247;54.300;18.592;2023-02-28T13:57:24;8.85;;;3.00;;
67248;SDS011;63247;54.300;18.592;2023-02-28T14:05:35;14.53;;;3.37;;
67248;SDS011;63247;54.300;18.592;2023-02-28T14:08:10;8.15;;;2.63;;
67248;SDS011;63247;54.300;18.592;2023-02-28T14:10:46;15.10;;;3.53;;
67248;SDS011;63247;54.300;18.592;2023-02-28T14:13:36;9.93;;;3.00;;
67248;SDS011;63247;54.300;18.592;2023-02-28T14:16:13;11.67;;;3.27;;
67248;SDS011;63247;54.300;18.592;2023-02-28T14:18:51;14.52;;;3.58;;
67248;SDS011;63247;54.300;18.592;2023-02-28T14:24:00;10.80;;;3.40;;
67248;SDS011;63247;54.300;18.592;2023-02-28T14:29:35;8.07;;;2.40;;
67248;SDS011;63247;54.300;18.592;2023-02-28T14:37:38;12.20;;;3.00;;
67248;SDS011;63247;54.300;18.592;2023-02-28T14:40:15;13.82;;;3.30;;
67248;SDS011;63247;54.300;18.592;2023-02-28T14:42:49;13.27;;;3.53;;
67248;SDS011;63247;54.300;18.592;2023-02-28T14:45:21;20.35;;;4.32;;
67248;SDS011;63247;54.300;18.592;2023-02-28T14:47:48;11.88;;;2.60;;
67248;SDS011;63247;54.300;18.592;2023-02-28T14:50:21;10.20;;;2.50;;
67248;SDS011;63247;54.300;18.592;2023-02-28T14:52:52;18.33;;;3.55;;
67248;SDS011;63247;54.300;18.592;2023-02-28T14:55:20;11.63;;;3.23;;
67248;SDS011;63247;54.300;18.592;2023-02-28T14:58:00;8.32;;;2.88;;
67248;SDS011;63247;54.300;18.592;2023-02-28T15:00:46;11.40;;;3.47;;
67248;SDS011;63247;54.300;18.592;2023-02-28T15:03:18;10.50;;;3.30;;
67248;SDS011;63247;54.300;18.592;2023-02-28T15:05:56;9.93;;;2.72;;
67248;SDS011;63247;54.300;18.592;2023-02-28T15:08:24;8.77;;;2.50;;
67248;SDS011;63247;54.300;18.592;2023-02-28T15:13:36;11.60;;;3.55;;
67248;SDS011;63247;54.300;18.592;2023-02-28T15:16:06;12.63;;;3.70;;
67248;SDS011;63247;54.300;18.592;2023-02-28T15:21:09;7.90;;;2.67;;
67248;SDS011;63247;54.300;18.592;2023-02-28T15:23:38;9.98;;;2.92;;
67248;SDS011;63247;54.300;18.592;2023-02-28T15:26:10;10.50;;;2.95;;
67248;SDS011;63247;54.300;18.592;2023-02-28T15:28:41;11.45;;;3.33;;
67248;SDS011;63247;54.300;18.592;2023-02-28T15:31:18;9.97;;;3.27;;
67248;SDS011;63247;54.300;18.592;2023-02-28T15:33:56;11.45;;;3.17;;
67248;SDS011;63247;54.300;18.592;2023-02-28T15:36:25;11.48;;;3.63;;
67248;SDS011;63247;54.300;18.592;2023-02-28T15:38:53;8.50;;;3.22;;
67248;SDS011;63247;54.300;18.592;2023-02-28T15:41:26;9.43;;;2.87;;
67248;SDS011;63247;54.300;18.592;2023-02-28T15:49:36;12.77;;;3.97;;
67248;SDS011;63247;54.300;18.592;2023-02-28T15:52:05;15.77;;;4.77;;
67248;SDS011;63247;54.300;18.592;2023-02-28T15:54:32;15.90;;;5.00;;
67248;SDS011;63247;54.300;18.592;2023-02-28T15:57:06;17.40;;;5.10;;
67248;SDS011;63247;54.300;18.592;2023-02-28T15:59:38;12.55;;;3.80;;
67248;SDS011;63247;54.300;18.592;2023-02-28T16:04:35;17.73;;;4.37;;
67248;SDS011;63247;54.300;18.592;2023-02-28T16:07:03;15.80;;;4.28;;
67248;SDS011;63247;54.300;18.592;2023-02-28T16:09:30;18.27;;;5.57;;
67248;SDS011;63247;54.300;18.592;2023-02-28T16:11:56;18.20;;;5.97;;
67248;SDS011;63247;54.300;18.592;2023-02-28T16:14:26;16.42;;;4.90;;
67248;SDS011;63247;54.300;18.592;2023-02-28T16:16:56;17.27;;;4.70;;
67248;SDS011;63247;54.300;18.592;2023-02-28T16:19:31;19.00;;;5.50;;
67248;SDS011;63247;54.300;18.592;2023-02-28T16:21:57;31.88;;;7.40;;
67248;SDS011;63247;54.300;18.592;2023-02-28T16:24:22;44.08;;;9.23;;
67248;SDS011;63247;54.300;18.592;2023-02-28T16:26:48;28.93;;;8.63;;
67248;SDS011;63247;54.300;18.592;2023-02-28T16:29:26;22.63;;;7.00;;
67248;SDS011;63247;54.300;18.592;2023-02-28T16:31:54;21.97;;;5.97;;
67248;SDS011;63247;54.300;18.592;2023-02-28T16:34:20;17.58;;;5.50;;
67248;SDS011;63247;54.300;18.592;2023-02-28T16:36:46;17.30;;;5.13;;
67248;SDS011;63247;54.300;18.592;2023-02-28T16:39:13;18.58;;;6.10;;
67248;SDS011;63247;54.300;18.592;2023-02-28T16:41:41;19.45;;;5.95;;
67248;SDS011;63247;54.300;18.592;2023-02-28T16:44:10;22.70;;;6.05;;
67248;SDS011;63247;54.300;18.592;2023-02-28T16:46:45;17.65;;;5.93;;
67248;SDS011;63247;54.300;18.592;2023-02-28T16:49:11;20.83;;;6.63;;
67248;SDS011;63247;54.300;18.592;2023-02-28T16:51:37;20.27;;;6.90;;
67248;SDS011;63247;54.300;18.592;2023-02-28T16:54:03;20.33;;;6.70;;
67248;SDS011;63247;54.300;18.592;2023-02-28T16:56:28;20.83;;;6.90;;
67248;SDS011;63247;54.300;18.592;2023-02-28T16:58:54;21.17;;;6.78;;
67248;SDS011;63247;54.300;18.592;2023-02-28T17:01:24;23.00;;;7.30;;
67248;SDS011;63247;54.300;18.592;2023-02-28T17:03:51;22.17;;;7.22;;
67248;SDS011;63247;54.300;18.592;2023-02-28T17:06:19;22.75;;;7.30;;
67248;SDS011;63247;54.300;18.592;2023-02-28T17:08:50;20.80;;;6.53;;
67248;SDS011;63247;54.300;18.592;2023-02-28T17:11:17;18.08;;;6.53;;
67248;SDS011;63247;54.300;18.592;2023-02-28T17:13:43;26.00;;;7.18;;
67248;SDS011;63247;54.300;18.592;2023-02-28T17:16:11;21.50;;;7.30;;
67248;SDS011;63247;54.300;18.592;2023-02-28T17:18:43;23.67;;;7.30;;
67248;SDS011;63247;54.300;18.592;2023-02-28T17:21:17;21.47;;;7.10;;
67248;SDS011;63247;54.300;18.592;2023-02-28T17:23:43;23.67;;;7.40;;
67248;SDS011;63247;54.300;18.592;2023-02-28T17:26:12;21.00;;;6.65;;
67248;SDS011;63247;54.300;18.592;2023-02-28T17:28:39;18.52;;;5.93;;